sensor_id;sensor_type;location;lat;lon;timestamp;P1;durP1;ratioP1;P2;durP2;ratioP2
41689;SDS011;27372;42.658;23.256;2024-01-30T00:01:35;7.30;;;4.57;;
41689;SDS011;27372;42.658;23.256;2024-01-30T00:04:00;10.18;;;5.53;;
41689;SDS011;27372;42.658;23.256;2024-01-30T00:06:25;8.40;;;4.83;;
41689;SDS011;27372;42.658;23.256;2024-01-30T00:08:51;7.67;;;4.70;;
41689;SDS011;27372;42.658;23.256;2024-01-30T00:11:16;8.13;;;5.13;;
41689;SDS011;27372;42.658;23.256;2024-01-30T00:13:41;8.55;;;4.88;;
41689;SDS011;27372;42.658;23.256;2024-01-30T00:16:07;8.82;;;5.53;;
41689;SDS011;27372;42.658;23.256;2024-01-30T00:18:33;12.55;;;6.65;;
41689;SDS011;27372;42.658;23.256;2024-01-30T00:20:58;13.05;;;6.90;;
41689;SDS011;27372;42.658;23.256;2024-01-30T00:23:23;21.35;;;9.82;;
41689;SDS011;27372;42.658;23.256;2024-01-30T00:25:49;23.75;;;11.00;;
41689;SDS011;27372;42.658;23.256;2024-01-30T00:28:15;23.30;;;10.57;;
41689;SDS011;27372;42.658;23.256;2024-01-30T00:30:40;37.97;;;14.30;;
41689;SDS011;27372;42.658;23.256;2024-01-30T00:33:06;37.22;;;14.50;;
41689;SDS011;27372;42.658;23.256;2024-01-30T00:35:32;25.30;;;11.18;;
41689;SDS011;27372;42.658;23.256;2024-01-30T00:37:58;17.55;;;8.65;;
41689;SDS011;27372;42.658;23.256;2024-01-30T00:40:23;15.38;;;7.40;;
41689;SDS011;27372;42.658;23.256;2024-01-30T00:42:48;14.82;;;8.00;;
41689;SDS011;27372;42.658;23.256;2024-01-30T00:45:14;13.15;;;6.90;;
41689;SDS011;27372;42.658;23.256;2024-01-30T00:47:40;11.40;;;6.57;;
41689;SDS011;27372;42.658;23.256;2024-01-30T00:50:05;11.07;;;6.20;;
41689;SDS011;27372;42.658;23.256;2024-01-30T00:52:30;9.48;;;5.28;;
41689;SDS011;27372;42.658;23.256;2024-01-30T00:54:57;11.57;;;6.22;;
41689;SDS011;27372;42.658;23.256;2024-01-30T00:57:22;10.70;;;5.87;;
41689;SDS011;27372;42.658;23.256;2024-01-30T00:59:47;11.20;;;6.73;;
41689;SDS011;27372;42.658;23.256;2024-01-30T01:02:12;18.65;;;9.07;;
41689;SDS011;27372;42.658;23.256;2024-01-30T01:04:38;14.25;;;7.68;;
41689;SDS011;27372;42.658;23.256;2024-01-30T01:07:04;15.47;;;8.17;;
41689;SDS011;27372;42.658;23.256;2024-01-30T01:09:29;17.10;;;8.88;;
41689;SDS011;27372;42.658;23.256;2024-01-30T01:11:55;21.00;;;11.20;;
41689;SDS011;27372;42.658;23.256;2024-01-30T01:14:20;30.98;;;15.27;;
41689;SDS011;27372;42.658;23.256;2024-01-30T01:16:45;27.67;;;14.73;;
41689;SDS011;27372;42.658;23.256;2024-01-30T01:19:10;27.37;;;13.53;;
41689;SDS011;27372;42.658;23.256;2024-01-30T01:21:36;24.13;;;11.63;;
41689;SDS011;27372;42.658;23.256;2024-01-30T01:24:01;11.93;;;7.25;;
41689;SDS011;27372;42.658;23.256;2024-01-30T01:26:26;14.17;;;7.30;;
41689;SDS011;27372;42.658;23.256;2024-01-30T01:28:51;12.70;;;6.87;;
41689;SDS011;27372;42.658;23.256;2024-01-30T01:31:17;10.70;;;5.78;;
41689;SDS011;27372;42.658;23.256;2024-01-30T01:33:42;10.43;;;6.18;;
41689;SDS011;27372;42.658;23.256;2024-01-30T01:36:08;9.52;;;5.65;;
41689;SDS011;27372;42.658;23.256;2024-01-30T01:38:33;8.73;;;4.83;;
41689;SDS011;27372;42.658;23.256;2024-01-30T01:40:58;6.57;;;4.20;;
41689;SDS011;27372;42.658;23.256;2024-01-30T01:43:23;8.90;;;5.20;;
41689;SDS011;27372;42.658;23.256;2024-01-30T01:45:48;8.13;;;4.80;;
41689;SDS011;27372;42.658;23.256;2024-01-30T01:48:14;7.93;;;4.70;;
41689;SDS011;27372;42.658;23.256;2024-01-30T01:50:40;11.07;;;4.85;;
41689;SDS011;27372;42.658;23.256;2024-01-30T01:53:06;8.95;;;4.30;;
41689;SDS011;27372;42.658;23.256;2024-01-30T01:55:32;7.63;;;3.80;;
41689;SDS011;27372;42.658;23.256;2024-01-30T01:57:58;7.13;;;3.97;;
41689;SDS011;27372;42.658;23.256;2024-01-30T02:00:24;6.78;;;4.30;;
41689;SDS011;27372;42.658;23.256;2024-01-30T02:02:49;7.82;;;4.72;;
41689;SDS011;27372;42.658;23.256;2024-01-30T02:05:15;7.50;;;4.45;;
41689;SDS011;27372;42.658;23.256;2024-01-30T02:07:41;13.57;;;6.72;;
41689;SDS011;27372;42.658;23.256;2024-01-30T02:10:07;10.23;;;5.05;;
41689;SDS011;27372;42.658;23.256;2024-01-30T02:12:33;10.70;;;5.40;;
41689;SDS011;27372;42.658;23.256;2024-01-30T02:14:58;10.17;;;5.23;;
41689;SDS011;27372;42.658;23.256;2024-01-30T02:17:23;7.47;;;4.68;;
41689;SDS011;27372;42.658;23.256;2024-01-30T02:19:49;10.35;;;4.60;;
41689;SDS011;27372;42.658;23.256;2024-01-30T02:22:14;9.80;;;5.00;;
41689;SDS011;27372;42.658;23.256;2024-01-30T02:24:39;8.13;;;4.53;;
41689;SDS011;27372;42.658;23.256;2024-01-30T02:27:04;9.20;;;4.80;;
41689;SDS011;27372;42.658;23.256;2024-01-30T02:29:30;8.73;;;5.10;;
41689;SDS011;27372;42.658;23.256;2024-01-30T02:31:55;8.43;;;4.63;;
41689;SDS011;27372;42.658;23.256;2024-01-30T02:34:20;11.18;;;5.55;;
41689;SDS011;27372;42.658;23.256;2024-01-30T02:36:46;18.20;;;8.60;;
41689;SDS011;27372;42.658;23.256;2024-01-30T02:39:11;11.23;;;5.50;;
41689;SDS011;27372;42.658;23.256;2024-01-30T02:41:36;8.10;;;4.57;;
41689;SDS011;27372;42.658;23.256;2024-01-30T02:44:02;8.43;;;4.57;;
41689;SDS011;27372;42.658;23.256;2024-01-30T02:46:28;7.95;;;4.13;;
41689;SDS011;27372;42.658;23.256;2024-01-30T02:48:53;9.20;;;4.68;;
41689;SDS011;27372;42.658;23.256;2024-01-30T02:51:18;8.23;;;4.70;;
41689;SDS011;27372;42.658;23.256;2024-01-30T02:53:43;8.82;;;5.03;;
41689;SDS011;27372;42.658;23.256;2024-01-30T02:56:09;9.05;;;5.35;;
41689;SDS011;27372;42.658;23.256;2024-01-30T02:58:37;16.02;;;7.00;;
41689;SDS011;27372;42.658;23.256;2024-01-30T03:01:02;17.90;;;8.00;;
41689;SDS011;27372;42.658;23.256;2024-01-30T03:03:27;14.98;;;6.63;;
41689;SDS011;27372;42.658;23.256;2024-01-30T03:05:53;10.95;;;6.40;;
41689;SDS011;27372;42.658;23.256;2024-01-30T03:08:18;9.55;;;5.13;;
41689;SDS011;27372;42.658;23.256;2024-01-30T03:10:43;10.52;;;5.65;;
41689;SDS011;27372;42.658;23.256;2024-01-30T03:13:08;9.30;;;4.67;;
41689;SDS011;27372;42.658;23.256;2024-01-30T03:15:34;9.63;;;5.10;;
41689;SDS011;27372;42.658;23.256;2024-01-30T03:17:59;7.67;;;4.80;;
41689;SDS011;27372;42.658;23.256;2024-01-30T03:20:24;8.57;;;4.67;;
41689;SDS011;27372;42.658;23.256;2024-01-30T03:22:49;11.38;;;5.40;;
41689;SDS011;27372;42.658;23.256;2024-01-30T03:25:15;9.53;;;4.73;;
41689;SDS011;27372;42.658;23.256;2024-01-30T03:27:40;8.38;;;5.00;;
41689;SDS011;27372;42.658;23.256;2024-01-30T03:30:06;7.77;;;4.30;;
41689;SDS011;27372;42.658;23.256;2024-01-30T03:32:31;7.93;;;4.30;;
41689;SDS011;27372;42.658;23.256;2024-01-30T03:34:56;7.40;;;4.10;;
41689;SDS011;27372;42.658;23.256;2024-01-30T03:37:23;9.45;;;4.50;;
41689;SDS011;27372;42.658;23.256;2024-01-30T03:39:48;6.78;;;3.95;;
41689;SDS011;27372;42.658;23.256;2024-01-30T03:42:13;7.33;;;4.30;;
41689;SDS011;27372;42.658;23.256;2024-01-30T03:44:38;7.27;;;4.07;;
41689;SDS011;27372;42.658;23.256;2024-01-30T03:47:04;6.27;;;3.47;;
41689;SDS011;27372;42.658;23.256;2024-01-30T03:49:29;6.28;;;3.42;;
41689;SDS011;27372;42.658;23.256;2024-01-30T03:51:54;9.33;;;3.70;;
41689;SDS011;27372;42.658;23.256;2024-01-30T03:54:19;8.30;;;3.70;;
41689;SDS011;27372;42.658;23.256;2024-01-30T03:56:45;9.47;;;5.30;;
41689;SDS011;27372;42.658;23.256;2024-01-30T03:59:10;10.83;;;5.13;;
41689;SDS011;27372;42.658;23.256;2024-01-30T04:01:35;7.28;;;4.03;;
41689;SDS011;27372;42.658;23.256;2024-01-30T04:04:00;8.97;;;3.73;;
41689;SDS011;27372;42.658;23.256;2024-01-30T04:06:26;5.80;;;3.40;;
41689;SDS011;27372;42.658;23.256;2024-01-30T04:08:51;8.07;;;4.82;;
41689;SDS011;27372;42.658;23.256;2024-01-30T04:11:18;10.10;;;5.13;;
41689;SDS011;27372;42.658;23.256;2024-01-30T04:13:43;7.90;;;4.22;;
41689;SDS011;27372;42.658;23.256;2024-01-30T04:16:08;4.65;;;3.03;;
41689;SDS011;27372;42.658;23.256;2024-01-30T04:18:43;6.90;;;3.38;;
41689;SDS011;27372;42.658;23.256;2024-01-30T04:21:09;8.87;;;5.00;;
41689;SDS011;27372;42.658;23.256;2024-01-30T04:23:34;8.57;;;4.20;;
41689;SDS011;27372;42.658;23.256;2024-01-30T04:25:59;8.17;;;4.60;;
41689;SDS011;27372;42.658;23.256;2024-01-30T04:28:24;6.73;;;4.27;;
41689;SDS011;27372;42.658;23.256;2024-01-30T04:30:50;8.10;;;3.97;;
41689;SDS011;27372;42.658;23.256;2024-01-30T04:33:15;10.95;;;3.80;;
41689;SDS011;27372;42.658;23.256;2024-01-30T04:35:43;38.72;;;21.60;;
41689;SDS011;27372;42.658;23.256;2024-01-30T04:38:08;9.50;;;5.60;;
41689;SDS011;27372;42.658;23.256;2024-01-30T04:40:33;10.60;;;5.95;;
41689;SDS011;27372;42.658;23.256;2024-01-30T04:42:59;13.40;;;6.97;;
41689;SDS011;27372;42.658;23.256;2024-01-30T04:45:24;17.97;;;7.40;;
41689;SDS011;27372;42.658;23.256;2024-01-30T04:47:49;25.93;;;8.73;;
41689;SDS011;27372;42.658;23.256;2024-01-30T04:50:14;25.20;;;9.70;;
41689;SDS011;27372;42.658;23.256;2024-01-30T04:52:40;23.80;;;10.60;;
41689;SDS011;27372;42.658;23.256;2024-01-30T04:55:05;18.40;;;9.50;;
41689;SDS011;27372;42.658;23.256;2024-01-30T04:57:30;14.10;;;7.50;;
41689;SDS011;27372;42.658;23.256;2024-01-30T04:59:56;12.98;;;6.13;;
41689;SDS011;27372;42.658;23.256;2024-01-30T05:02:22;11.55;;;6.03;;
41689;SDS011;27372;42.658;23.256;2024-01-30T05:04:47;12.02;;;6.50;;
41689;SDS011;27372;42.658;23.256;2024-01-30T05:07:12;9.67;;;5.57;;
41689;SDS011;27372;42.658;23.256;2024-01-30T05:09:38;13.25;;;5.07;;
41689;SDS011;27372;42.658;23.256;2024-01-30T05:12:03;8.93;;;5.17;;
41689;SDS011;27372;42.658;23.256;2024-01-30T05:14:28;11.73;;;4.90;;
41689;SDS011;27372;42.658;23.256;2024-01-30T05:16:53;8.20;;;4.70;;
41689;SDS011;27372;42.658;23.256;2024-01-30T05:19:19;6.07;;;3.60;;
41689;SDS011;27372;42.658;23.256;2024-01-30T05:21:45;8.30;;;4.40;;
41689;SDS011;27372;42.658;23.256;2024-01-30T05:24:10;9.03;;;4.23;;
41689;SDS011;27372;42.658;23.256;2024-01-30T05:26:35;10.23;;;5.50;;
41689;SDS011;27372;42.658;23.256;2024-01-30T05:29:01;14.80;;;4.57;;
41689;SDS011;27372;42.658;23.256;2024-01-30T05:31:26;10.02;;;5.65;;
41689;SDS011;27372;42.658;23.256;2024-01-30T05:33:52;10.15;;;5.10;;
41689;SDS011;27372;42.658;23.256;2024-01-30T05:36:17;13.23;;;7.10;;
41689;SDS011;27372;42.658;23.256;2024-01-30T05:38:42;14.20;;;6.22;;
41689;SDS011;27372;42.658;23.256;2024-01-30T05:41:08;14.35;;;6.95;;
41689;SDS011;27372;42.658;23.256;2024-01-30T05:43:33;18.37;;;9.77;;
41689;SDS011;27372;42.658;23.256;2024-01-30T05:45:59;17.83;;;7.28;;
41689;SDS011;27372;42.658;23.256;2024-01-30T05:48:24;12.17;;;6.10;;
41689;SDS011;27372;42.658;23.256;2024-01-30T05:50:49;23.52;;;8.02;;
41689;SDS011;27372;42.658;23.256;2024-01-30T05:53:16;15.07;;;6.63;;
41689;SDS011;27372;42.658;23.256;2024-01-30T05:55:41;11.00;;;6.03;;
41689;SDS011;27372;42.658;23.256;2024-01-30T05:58:06;15.68;;;7.30;;
41689;SDS011;27372;42.658;23.256;2024-01-30T06:00:31;17.17;;;7.10;;
41689;SDS011;27372;42.658;23.256;2024-01-30T06:02:57;12.27;;;5.95;;
41689;SDS011;27372;42.658;23.256;2024-01-30T06:05:22;10.07;;;4.88;;
41689;SDS011;27372;42.658;23.256;2024-01-30T06:07:47;8.37;;;4.70;;
41689;SDS011;27372;42.658;23.256;2024-01-30T06:10:13;11.00;;;5.80;;
41689;SDS011;27372;42.658;23.256;2024-01-30T06:12:38;16.08;;;7.68;;
41689;SDS011;27372;42.658;23.256;2024-01-30T06:15:03;35.15;;;17.33;;
41689;SDS011;27372;42.658;23.256;2024-01-30T06:17:48;20.33;;;9.23;;
41689;SDS011;27372;42.658;23.256;2024-01-30T06:20:14;13.27;;;6.47;;
41689;SDS011;27372;42.658;23.256;2024-01-30T06:22:39;14.53;;;6.10;;
41689;SDS011;27372;42.658;23.256;2024-01-30T06:25:05;14.52;;;5.40;;
41689;SDS011;27372;42.658;23.256;2024-01-30T06:27:30;12.27;;;4.75;;
41689;SDS011;27372;42.658;23.256;2024-01-30T06:29:55;19.45;;;7.97;;
41689;SDS011;27372;42.658;23.256;2024-01-30T06:32:20;11.75;;;6.22;;
41689;SDS011;27372;42.658;23.256;2024-01-30T06:34:46;13.30;;;5.13;;
41689;SDS011;27372;42.658;23.256;2024-01-30T06:37:11;9.23;;;4.93;;
41689;SDS011;27372;42.658;23.256;2024-01-30T06:39:37;11.20;;;5.40;;
41689;SDS011;27372;42.658;23.256;2024-01-30T06:42:02;9.90;;;5.28;;
41689;SDS011;27372;42.658;23.256;2024-01-30T06:44:28;18.60;;;4.97;;
41689;SDS011;27372;42.658;23.256;2024-01-30T06:46:53;12.33;;;5.27;;
41689;SDS011;27372;42.658;23.256;2024-01-30T06:49:18;12.02;;;4.57;;
41689;SDS011;27372;42.658;23.256;2024-01-30T06:51:44;12.68;;;5.13;;
41689;SDS011;27372;42.658;23.256;2024-01-30T06:54:09;16.75;;;4.82;;
41689;SDS011;27372;42.658;23.256;2024-01-30T06:56:34;10.47;;;5.00;;
41689;SDS011;27372;42.658;23.256;2024-01-30T06:59:00;10.02;;;4.90;;
41689;SDS011;27372;42.658;23.256;2024-01-30T07:01:29;20.87;;;4.57;;
41689;SDS011;27372;42.658;23.256;2024-01-30T07:03:54;7.50;;;4.47;;
41689;SDS011;27372;42.658;23.256;2024-01-30T07:06:20;9.30;;;4.05;;
41689;SDS011;27372;42.658;23.256;2024-01-30T07:08:45;6.57;;;4.05;;
41689;SDS011;27372;42.658;23.256;2024-01-30T07:11:10;10.87;;;4.70;;
41689;SDS011;27372;42.658;23.256;2024-01-30T07:13:37;8.90;;;4.50;;
41689;SDS011;27372;42.658;23.256;2024-01-30T07:16:02;8.13;;;4.88;;
41689;SDS011;27372;42.658;23.256;2024-01-30T07:18:28;9.80;;;5.07;;
41689;SDS011;27372;42.658;23.256;2024-01-30T07:20:53;9.80;;;5.07;;
41689;SDS011;27372;42.658;23.256;2024-01-30T07:23:18;8.93;;;4.00;;
41689;SDS011;27372;42.658;23.256;2024-01-30T07:25:44;8.25;;;3.60;;
41689;SDS011;27372;42.658;23.256;2024-01-30T07:28:10;9.68;;;3.00;;
41689;SDS011;27372;42.658;23.256;2024-01-30T07:30:35;12.55;;;3.25;;
41689;SDS011;27372;42.658;23.256;2024-01-30T07:33:01;7.15;;;3.38;;
41689;SDS011;27372;42.658;23.256;2024-01-30T07:35:26;4.17;;;2.67;;
41689;SDS011;27372;42.658;23.256;2024-01-30T07:37:51;6.50;;;2.97;;
41689;SDS011;27372;42.658;23.256;2024-01-30T07:40:17;6.13;;;2.90;;
41689;SDS011;27372;42.658;23.256;2024-01-30T07:42:42;5.50;;;3.20;;
41689;SDS011;27372;42.658;23.256;2024-01-30T07:45:07;3.43;;;2.53;;
41689;SDS011;27372;42.658;23.256;2024-01-30T07:47:33;5.55;;;2.40;;
41689;SDS011;27372;42.658;23.256;2024-01-30T07:49:58;3.95;;;2.65;;
41689;SDS011;27372;42.658;23.256;2024-01-30T07:52:23;5.67;;;3.57;;
41689;SDS011;27372;42.658;23.256;2024-01-30T07:54:49;8.63;;;3.93;;
41689;SDS011;27372;42.658;23.256;2024-01-30T07:57:14;6.68;;;2.70;;
41689;SDS011;27372;42.658;23.256;2024-01-30T07:59:41;6.68;;;2.97;;
41689;SDS011;27372;42.658;23.256;2024-01-30T08:02:06;5.78;;;2.90;;
41689;SDS011;27372;42.658;23.256;2024-01-30T08:04:32;3.75;;;2.35;;
41689;SDS011;27372;42.658;23.256;2024-01-30T08:06:58;10.35;;;3.00;;
41689;SDS011;27372;42.658;23.256;2024-01-30T08:09:23;6.03;;;3.67;;
41689;SDS011;27372;42.658;23.256;2024-01-30T08:11:48;5.57;;;3.30;;
41689;SDS011;27372;42.658;23.256;2024-01-30T08:14:14;7.00;;;3.80;;
41689;SDS011;27372;42.658;23.256;2024-01-30T08:16:39;7.35;;;3.42;;
41689;SDS011;27372;42.658;23.256;2024-01-30T08:19:04;7.35;;;3.80;;
41689;SDS011;27372;42.658;23.256;2024-01-30T08:21:30;4.13;;;2.65;;
41689;SDS011;27372;42.658;23.256;2024-01-30T08:23:55;4.82;;;3.05;;
41689;SDS011;27372;42.658;23.256;2024-01-30T08:26:20;8.02;;;3.78;;
41689;SDS011;27372;42.658;23.256;2024-01-30T08:28:46;8.75;;;3.35;;
41689;SDS011;27372;42.658;23.256;2024-01-30T08:31:11;4.28;;;3.10;;
41689;SDS011;27372;42.658;23.256;2024-01-30T08:33:37;7.63;;;4.38;;
41689;SDS011;27372;42.658;23.256;2024-01-30T08:36:02;4.68;;;3.42;;
41689;SDS011;27372;42.658;23.256;2024-01-30T08:38:28;6.03;;;3.00;;
41689;SDS011;27372;42.658;23.256;2024-01-30T08:40:54;5.73;;;3.43;;
41689;SDS011;27372;42.658;23.256;2024-01-30T08:43:19;7.03;;;3.53;;
41689;SDS011;27372;42.658;23.256;2024-01-30T08:45:45;8.10;;;5.38;;
41689;SDS011;27372;42.658;23.256;2024-01-30T08:48:10;5.72;;;3.60;;
41689;SDS011;27372;42.658;23.256;2024-01-30T08:50:35;10.90;;;4.50;;
41689;SDS011;27372;42.658;23.256;2024-01-30T08:53:00;5.43;;;3.23;;
41689;SDS011;27372;42.658;23.256;2024-01-30T08:55:26;5.73;;;3.20;;
41689;SDS011;27372;42.658;23.256;2024-01-30T08:57:51;6.28;;;3.63;;
41689;SDS011;27372;42.658;23.256;2024-01-30T09:00:17;4.80;;;3.50;;
41689;SDS011;27372;42.658;23.256;2024-01-30T09:02:42;4.90;;;3.40;;
41689;SDS011;27372;42.658;23.256;2024-01-30T09:05:07;4.97;;;3.10;;
41689;SDS011;27372;42.658;23.256;2024-01-30T09:07:33;6.10;;;3.50;;
41689;SDS011;27372;42.658;23.256;2024-01-30T09:09:58;9.20;;;3.97;;
41689;SDS011;27372;42.658;23.256;2024-01-30T09:12:23;7.80;;;4.60;;
41689;SDS011;27372;42.658;23.256;2024-01-30T09:14:49;10.80;;;5.90;;
41689;SDS011;27372;42.658;23.256;2024-01-30T09:17:14;7.53;;;4.60;;
41689;SDS011;27372;42.658;23.256;2024-01-30T09:19:40;45.27;;;6.37;;
41689;SDS011;27372;42.658;23.256;2024-01-30T09:22:05;7.95;;;4.35;;
41689;SDS011;27372;42.658;23.256;2024-01-30T09:24:31;8.90;;;5.25;;
41689;SDS011;27372;42.658;23.256;2024-01-30T09:26:56;9.02;;;5.15;;
41689;SDS011;27372;42.658;23.256;2024-01-30T09:29:22;8.60;;;5.30;;
41689;SDS011;27372;42.658;23.256;2024-01-30T09:31:47;9.32;;;4.90;;
41689;SDS011;27372;42.658;23.256;2024-01-30T09:34:13;9.82;;;5.63;;
41689;SDS011;27372;42.658;23.256;2024-01-30T09:36:38;9.70;;;5.38;;
41689;SDS011;27372;42.658;23.256;2024-01-30T09:39:04;8.48;;;5.18;;
41689;SDS011;27372;42.658;23.256;2024-01-30T09:41:29;25.58;;;5.80;;
41689;SDS011;27372;42.658;23.256;2024-01-30T09:43:57;9.35;;;4.55;;
41689;SDS011;27372;42.658;23.256;2024-01-30T09:46:22;7.03;;;4.22;;
41689;SDS011;27372;42.658;23.256;2024-01-30T09:48:49;9.00;;;3.95;;
41689;SDS011;27372;42.658;23.256;2024-01-30T09:51:14;6.75;;;4.47;;
41689;SDS011;27372;42.658;23.256;2024-01-30T09:53:41;7.80;;;4.47;;
41689;SDS011;27372;42.658;23.256;2024-01-30T09:56:08;6.97;;;4.00;;
41689;SDS011;27372;42.658;23.256;2024-01-30T09:58:33;10.88;;;4.25;;
41689;SDS011;27372;42.658;23.256;2024-01-30T10:00:58;9.33;;;5.30;;
41689;SDS011;27372;42.658;23.256;2024-01-30T10:03:24;7.28;;;4.03;;
41689;SDS011;27372;42.658;23.256;2024-01-30T10:05:50;6.38;;;4.25;;
41689;SDS011;27372;42.658;23.256;2024-01-30T10:08:17;8.88;;;4.40;;
41689;SDS011;27372;42.658;23.256;2024-01-30T10:10:45;10.38;;;4.72;;
41689;SDS011;27372;42.658;23.256;2024-01-30T10:13:10;9.15;;;4.68;;
41689;SDS011;27372;42.658;23.256;2024-01-30T10:15:36;9.20;;;4.50;;
41689;SDS011;27372;42.658;23.256;2024-01-30T10:18:03;7.28;;;4.07;;
41689;SDS011;27372;42.658;23.256;2024-01-30T10:20:31;9.60;;;4.20;;
41689;SDS011;27372;42.658;23.256;2024-01-30T10:22:57;7.38;;;4.25;;
41689;SDS011;27372;42.658;23.256;2024-01-30T10:25:22;11.50;;;4.57;;
41689;SDS011;27372;42.658;23.256;2024-01-30T10:27:52;11.48;;;3.95;;
41689;SDS011;27372;42.658;23.256;2024-01-30T10:30:17;8.82;;;4.60;;
41689;SDS011;27372;42.658;23.256;2024-01-30T10:32:42;18.30;;;4.40;;
41689;SDS011;27372;42.658;23.256;2024-01-30T10:35:07;6.35;;;3.92;;
41689;SDS011;27372;42.658;23.256;2024-01-30T10:37:33;7.65;;;4.28;;
41689;SDS011;27372;42.658;23.256;2024-01-30T10:40:02;11.80;;;4.15;;
41689;SDS011;27372;42.658;23.256;2024-01-30T10:42:28;8.18;;;3.78;;
41689;SDS011;27372;42.658;23.256;2024-01-30T10:44:57;6.47;;;3.90;;
41689;SDS011;27372;42.658;23.256;2024-01-30T10:47:28;8.48;;;3.53;;
41689;SDS011;27372;42.658;23.256;2024-01-30T10:49:56;6.72;;;3.80;;
41689;SDS011;27372;42.658;23.256;2024-01-30T10:52:25;7.93;;;3.80;;
41689;SDS011;27372;42.658;23.256;2024-01-30T10:54:51;8.20;;;4.53;;
41689;SDS011;27372;42.658;23.256;2024-01-30T10:57:17;7.40;;;4.03;;
41689;SDS011;27372;42.658;23.256;2024-01-30T10:59:42;7.85;;;4.30;;
41689;SDS011;27372;42.658;23.256;2024-01-30T11:02:09;7.75;;;4.30;;
41689;SDS011;27372;42.658;23.256;2024-01-30T11:04:36;5.63;;;3.90;;
41689;SDS011;27372;42.658;23.256;2024-01-30T11:07:01;6.75;;;4.32;;
41689;SDS011;27372;42.658;23.256;2024-01-30T11:09:28;7.60;;;4.28;;
41689;SDS011;27372;42.658;23.256;2024-01-30T11:11:57;8.18;;;4.10;;
41689;SDS011;27372;42.658;23.256;2024-01-30T11:14:29;7.28;;;3.72;;
41689;SDS011;27372;42.658;23.256;2024-01-30T11:16:57;10.65;;;4.60;;
41689;SDS011;27372;42.658;23.256;2024-01-30T11:19:24;9.80;;;4.50;;
41689;SDS011;27372;42.658;23.256;2024-01-30T11:21:52;8.32;;;4.47;;
41689;SDS011;27372;42.658;23.256;2024-01-30T11:24:22;11.65;;;4.40;;
41689;SDS011;27372;42.658;23.256;2024-01-30T11:26:55;10.98;;;3.95;;
41689;SDS011;27372;42.658;23.256;2024-01-30T11:29:24;6.72;;;4.25;;
41689;SDS011;27372;42.658;23.256;2024-01-30T11:31:56;5.47;;;3.60;;
41689;SDS011;27372;42.658;23.256;2024-01-30T11:34:23;6.30;;;4.20;;
41689;SDS011;27372;42.658;23.256;2024-01-30T11:36:52;7.03;;;3.75;;
41689;SDS011;27372;42.658;23.256;2024-01-30T11:39:20;9.55;;;3.70;;
41689;SDS011;27372;42.658;23.256;2024-01-30T11:41:46;10.95;;;4.00;;
41689;SDS011;27372;42.658;23.256;2024-01-30T11:44:11;7.70;;;4.35;;
41689;SDS011;27372;42.658;23.256;2024-01-30T11:46:38;5.22;;;3.40;;
41689;SDS011;27372;42.658;23.256;2024-01-30T11:49:03;6.95;;;3.83;;
41689;SDS011;27372;42.658;23.256;2024-01-30T11:51:30;5.60;;;3.53;;
41689;SDS011;27372;42.658;23.256;2024-01-30T11:53:56;6.00;;;3.65;;
41689;SDS011;27372;42.658;23.256;2024-01-30T11:56:23;6.60;;;3.85;;
41689;SDS011;27372;42.658;23.256;2024-01-30T11:58:48;7.32;;;3.50;;
41689;SDS011;27372;42.658;23.256;2024-01-30T12:01:16;6.05;;;4.00;;
41689;SDS011;27372;42.658;23.256;2024-01-30T12:03:41;5.20;;;3.55;;
41689;SDS011;27372;42.658;23.256;2024-01-30T12:06:07;4.93;;;3.55;;
41689;SDS011;27372;42.658;23.256;2024-01-30T12:08:33;5.22;;;3.60;;
41689;SDS011;27372;42.658;23.256;2024-01-30T12:10:58;9.70;;;4.32;;
41689;SDS011;27372;42.658;23.256;2024-01-30T12:13:24;7.22;;;3.45;;
41689;SDS011;27372;42.658;23.256;2024-01-30T12:15:49;6.88;;;3.28;;
41689;SDS011;27372;42.658;23.256;2024-01-30T12:18:18;6.68;;;3.80;;
41689;SDS011;27372;42.658;23.256;2024-01-30T12:20:43;6.57;;;3.57;;
41689;SDS011;27372;42.658;23.256;2024-01-30T12:23:09;5.45;;;3.70;;
41689;SDS011;27372;42.658;23.256;2024-01-30T12:25:34;5.70;;;4.23;;
41689;SDS011;27372;42.658;23.256;2024-01-30T12:27:59;5.82;;;3.92;;
41689;SDS011;27372;42.658;23.256;2024-01-30T12:30:25;8.45;;;4.00;;
41689;SDS011;27372;42.658;23.256;2024-01-30T12:32:50;7.77;;;4.60;;
41689;SDS011;27372;42.658;23.256;2024-01-30T12:35:16;6.55;;;4.05;;
41689;SDS011;27372;42.658;23.256;2024-01-30T12:37:45;7.35;;;3.92;;
41689;SDS011;27372;42.658;23.256;2024-01-30T12:40:11;6.88;;;3.70;;
41689;SDS011;27372;42.658;23.256;2024-01-30T12:42:39;6.22;;;4.07;;
41689;SDS011;27372;42.658;23.256;2024-01-30T12:45:04;7.40;;;4.63;;
41689;SDS011;27372;42.658;23.256;2024-01-30T12:47:30;6.03;;;3.97;;
41689;SDS011;27372;42.658;23.256;2024-01-30T12:49:55;7.72;;;4.28;;
41689;SDS011;27372;42.658;23.256;2024-01-30T12:52:21;8.88;;;4.43;;
41689;SDS011;27372;42.658;23.256;2024-01-30T12:54:47;8.68;;;4.38;;
41689;SDS011;27372;42.658;23.256;2024-01-30T12:57:12;8.63;;;4.28;;
41689;SDS011;27372;42.658;23.256;2024-01-30T12:59:38;14.83;;;6.27;;
41689;SDS011;27372;42.658;23.256;2024-01-30T13:02:04;12.02;;;6.20;;
41689;SDS011;27372;42.658;23.256;2024-01-30T13:04:29;9.87;;;5.10;;
41689;SDS011;27372;42.658;23.256;2024-01-30T13:06:54;7.13;;;4.60;;
41689;SDS011;27372;42.658;23.256;2024-01-30T13:09:20;17.27;;;4.68;;
41689;SDS011;27372;42.658;23.256;2024-01-30T13:11:45;12.07;;;4.05;;
41689;SDS011;27372;42.658;23.256;2024-01-30T13:14:11;6.22;;;4.20;;
41689;SDS011;27372;42.658;23.256;2024-01-30T13:16:36;8.48;;;4.40;;
41689;SDS011;27372;42.658;23.256;2024-01-30T13:19:01;9.43;;;5.05;;
41689;SDS011;27372;42.658;23.256;2024-01-30T13:21:27;7.65;;;4.97;;
41689;SDS011;27372;42.658;23.256;2024-01-30T13:23:52;7.60;;;4.85;;
41689;SDS011;27372;42.658;23.256;2024-01-30T13:26:19;6.45;;;4.10;;
41689;SDS011;27372;42.658;23.256;2024-01-30T13:28:44;17.88;;;8.60;;
41689;SDS011;27372;42.658;23.256;2024-01-30T13:31:10;9.50;;;5.67;;
41689;SDS011;27372;42.658;23.256;2024-01-30T13:33:35;8.07;;;4.40;;
41689;SDS011;27372;42.658;23.256;2024-01-30T13:36:00;10.50;;;5.23;;
41689;SDS011;27372;42.658;23.256;2024-01-30T13:38:26;8.75;;;4.50;;
41689;SDS011;27372;42.658;23.256;2024-01-30T13:40:51;14.80;;;5.20;;
41689;SDS011;27372;42.658;23.256;2024-01-30T13:43:17;7.75;;;4.65;;
41689;SDS011;27372;42.658;23.256;2024-01-30T13:45:43;5.93;;;4.22;;
41689;SDS011;27372;42.658;23.256;2024-01-30T13:48:08;5.53;;;4.15;;
41689;SDS011;27372;42.658;23.256;2024-01-30T13:50:33;8.23;;;4.87;;
41689;SDS011;27372;42.658;23.256;2024-01-30T13:52:58;18.60;;;5.40;;
41689;SDS011;27372;42.658;23.256;2024-01-30T13:55:24;7.43;;;4.93;;
41689;SDS011;27372;42.658;23.256;2024-01-30T13:57:50;8.02;;;5.38;;
41689;SDS011;27372;42.658;23.256;2024-01-30T14:00:15;8.00;;;4.97;;
41689;SDS011;27372;42.658;23.256;2024-01-30T14:02:41;8.10;;;4.85;;
41689;SDS011;27372;42.658;23.256;2024-01-30T14:05:06;8.93;;;5.60;;
41689;SDS011;27372;42.658;23.256;2024-01-30T14:07:32;10.70;;;5.20;;
41689;SDS011;27372;42.658;23.256;2024-01-30T14:09:57;12.77;;;4.45;;
41689;SDS011;27372;42.658;23.256;2024-01-30T14:12:22;10.97;;;6.20;;
41689;SDS011;27372;42.658;23.256;2024-01-30T14:14:48;11.23;;;5.18;;
41689;SDS011;27372;42.658;23.256;2024-01-30T14:17:13;8.88;;;4.70;;
41689;SDS011;27372;42.658;23.256;2024-01-30T14:19:39;7.40;;;4.57;;